LBSF/SOF METAR and TAF weather

Enter ICAO airport designator
Station Type Date Time Source
LBSF METAR 2019/06/20 07:00 UTC NOAA

LBSF 200700Z VRB03KT 8000 NSC 20/16 Q1015 NOSIG


Station Type Date Time Source
LBSF Decoded METAR 2019/06/20 07:00 UTC NOAA

Sofia Observ. , Bulgaria (LBSF) 42-39N 023-23E 595M
Jun 20, 2019 - 03:00 AM EDT / 2019.06.20 0700 UTC
Wind: Variable at 3 MPH (3 KT):0
Visibility: 4 mile(s):0
Temperature: 68 F (20 C)
Dew Point: 60 F (16 C)
Relative Humidity: 77%
Pressure (altimeter): 29.97 in. Hg (1015 hPa)
ob: LBSF 200700Z VRB03KT 8000 NSC 20/16 Q1015 NOSIG
cycle: 7

Station Type Date Time Source
LBSF TAF 2019/06/20 06:18 UTC NOAA

TAF LBSF 200500Z 2006/2106 VRB04KT CAVOK
BECMG 2009/2011 08008KT SCT050 PROB40
TEMPO 2011/2018 VRB16G26KT 4000 TSRA SCT030CB BKN050

Example: see airport list